CDT,Max TemperatureF,Mean TemperatureF,Min TemperatureF,Max Dew PointF,MeanDew PointF,Min DewpointF,Max Humidity, Mean Humidity, Min Humidity, Max Sea Level PressureIn, Mean Sea Level PressureIn, Min Sea Level PressureIn, Max VisibilityMiles, Mean VisibilityMiles, Min VisibilityMiles, Max Wind SpeedMPH, Mean Wind SpeedMPH, Max Gust SpeedMPH,PrecipitationIn, CloudCover, Events, WindDirDegrees
2013-6-1,89,81,73,73,72,70,97,78,55,29.98,29.95,29.90,10,10,9,13,7,17,0.00,5,,171
2013-6-2,84,75,66,74,69,64,100,87,61,30.05,29.97,29.88,10,9,2,13,4,24,0.48,5,Rain,355
2013-6-3,88,79,71,70,70,69,96,74,55,29.95,29.90,29.85,10,10,10,9,3,,0.00,4,,6
2013-6-4,91,81,71,74,72,69,94,77,48,29.97,29.92,29.85,10,10,7,10,3,,0.00,3,,132
2013-6-5,87,79,71,74,72,66,100,84,53,29.95,29.90,29.79,10,8,0,16,2,22,0.34,5,Fog-Rain-Thunderstorm,115
2013-6-6,87,78,70,73,70,68,97,83,62,29.86,29.82,29.77,10,10,2,14,4,23,0.01,3,Rain-Thunderstorm,284
2013-6-7,84,76,69,68,67,64,94,77,51,29.90,29.85,29.79,10,9,5,10,5,,0.02,5,Rain,313
2013-6-8,87,76,66,72,68,65,94,79,53,29.97,29.93,29.90,10,8,4,10,2,,0.10,1,Rain-Thunderstorm,182
2013-6-9,88,78,69,73,70,67,100,84,51,29.98,29.95,29.88,10,10,8,13,3,18,0.03,2,Rain-Thunderstorm,172
2013-6-10,90,79,69,74,71,68,100,80,50,30.02,29.99,29.96,10,10,8,8,2,,0.01,2,,227
2013-6-11,91,80,71,76,72,70,100,86,52,30.12,30.06,30.01,10,5,0,7,1,,0.00,5,Fog,222
2013-6-12,91,81,71,75,72,69,100,83,50,30.11,30.07,30.01,10,6,0,7,1,,0.00,2,Fog,217
2013-6-13,91,82,72,75,72,69,96,76,48,30.08,30.00,29.90,10,9,4,10,3,,0.00,2,,285
2013-6-14,91,83,75,74,71,64,91,71,46,29.97,29.93,29.88,10,10,9,12,4,17,0.00,2,,10
2013-6-15,91,78,66,72,66,63,87,64,42,30.01,29.98,29.94,10,10,9,8,3,,0.00,1,,131
2013-6-16,91,82,72,76,73,70,94,79,55,30.07,30.02,29.96,10,8,2,9,3,,0.00,2,Thunderstorm,250
2013-6-17,91,82,73,74,71,67,96,72,45,30.02,29.96,29.91,10,10,8,13,4,18,0.00,2,,234
2013-6-18,91,80,70,74,71,69,97,80,50,30.02,29.96,29.89,10,9,2,17,6,29,0.35,4,Rain-Thunderstorm,267
2013-6-19,86,76,69,73,71,69,100,84,63,30.06,30.01,29.95,10,9,1,9,3,,0.28,5,Rain-Thunderstorm,258
2013-6-20,91,80,69,76,71,68,100,79,50,30.13,30.08,30.02,10,8,1,12,2,17,0.45,4,Rain-Thunderstorm,321
2013-6-21,91,80,70,73,70,66,97,73,44,30.13,30.09,30.05,10,9,3,6,1,,0.01,1,,92
2013-6-22,91,81,71,73,70,67,100,78,45,30.12,30.06,30.01,10,7,1,9,2,,0.91,3,Rain-Thunderstorm,70
2013-6-23,91,80,71,74,70,67,93,75,48,30.09,30.05,30.01,10,9,7,12,2,,0.00,0,,141
2013-6-24,89,80,71,74,72,69,100,85,52,30.15,30.10,30.05,10,8,2,9,2,,0.19,2,Rain-Thunderstorm,149
2013-6-25,90,79,71,75,73,70,100,80,58,30.11,30.06,30.00,10,9,2,12,3,18,0.01,2,Thunderstorm,173
2013-6-26,91,81,71,73,72,70,97,75,50,30.07,30.01,29.95,10,10,8,8,2,,0.00,1,,227
2013-6-27,91,82,73,75,73,70,94,74,48,30.03,29.98,29.92,10,10,9,10,4,,0.00,0,,271
2013-6-28,91,83,73,76,73,66,94,76,52,29.94,29.87,29.76,10,9,2,28,4,38,0.23,1,Rain-Thunderstorm,277
2013-6-29,87,79,71,75,71,66,97,86,62,29.86,29.77,29.71,10,9,2,9,4,22,0.11,3,Rain-Thunderstorm,241
2013-6-30,90,78,66,69,64,55,97,66,31,29.82,29.76,29.73,10,10,8,14,4,20,0.01,0,,313